sensor_id;sensor_type;location;lat;lon;timestamp;P1;durP1;ratioP1;P2;durP2;ratioP2
75990;SDS011;64673;52.276;10.560;2022-12-13T00:00:00;20.52;;;8.15;;
75990;SDS011;64673;52.276;10.560;2022-12-13T00:02:25;20.05;;;7.95;;
75990;SDS011;64673;52.276;10.560;2022-12-13T00:04:50;19.80;;;7.38;;
75990;SDS011;64673;52.276;10.560;2022-12-13T00:07:16;27.90;;;9.70;;
75990;SDS011;64673;52.276;10.560;2022-12-13T00:09:41;24.45;;;8.05;;
75990;SDS011;64673;52.276;10.560;2022-12-13T00:12:07;19.25;;;7.18;;
75990;SDS011;64673;52.276;10.560;2022-12-13T00:14:32;21.13;;;8.73;;
75990;SDS011;64673;52.276;10.560;2022-12-13T00:16:58;19.48;;;7.70;;
75990;SDS011;64673;52.276;10.560;2022-12-13T00:19:23;22.30;;;7.72;;
75990;SDS011;64673;52.276;10.560;2022-12-13T00:21:49;22.08;;;8.18;;
75990;SDS011;64673;52.276;10.560;2022-12-13T00:24:14;18.02;;;7.03;;
75990;SDS011;64673;52.276;10.560;2022-12-13T00:26:40;21.98;;;8.57;;
75990;SDS011;64673;52.276;10.560;2022-12-13T00:29:05;20.75;;;8.02;;
75990;SDS011;64673;52.276;10.560;2022-12-13T00:31:31;26.05;;;9.43;;
75990;SDS011;64673;52.276;10.560;2022-12-13T00:33:57;26.70;;;8.57;;
75990;SDS011;64673;52.276;10.560;2022-12-13T00:36:24;20.70;;;8.32;;
75990;SDS011;64673;52.276;10.560;2022-12-13T00:38:49;15.43;;;8.00;;
75990;SDS011;64673;52.276;10.560;2022-12-13T00:43:49;18.98;;;7.07;;
75990;SDS011;64673;52.276;10.560;2022-12-13T00:46:16;20.15;;;8.35;;
75990;SDS011;64673;52.276;10.560;2022-12-13T00:48:42;16.05;;;8.48;;
75990;SDS011;64673;52.276;10.560;2022-12-13T00:51:09;20.50;;;7.55;;
75990;SDS011;64673;52.276;10.560;2022-12-13T00:53:36;19.52;;;7.80;;
75990;SDS011;64673;52.276;10.560;2022-12-13T00:56:02;17.75;;;7.85;;
75990;SDS011;64673;52.276;10.560;2022-12-13T00:58:28;22.45;;;6.80;;
75990;SDS011;64673;52.276;10.560;2022-12-13T01:01:01;22.42;;;8.13;;
75990;SDS011;64673;52.276;10.560;2022-12-13T01:03:31;22.55;;;9.25;;
75990;SDS011;64673;52.276;10.560;2022-12-13T01:05:56;21.40;;;7.43;;
75990;SDS011;64673;52.276;10.560;2022-12-13T01:08:22;18.02;;;8.40;;
75990;SDS011;64673;52.276;10.560;2022-12-13T01:10:48;23.88;;;7.93;;
75990;SDS011;64673;52.276;10.560;2022-12-13T01:13:13;20.92;;;8.20;;
75990;SDS011;64673;52.276;10.560;2022-12-13T01:15:39;18.55;;;7.00;;
75990;SDS011;64673;52.276;10.560;2022-12-13T01:18:09;20.75;;;7.30;;
75990;SDS011;64673;52.276;10.560;2022-12-13T01:20:36;18.13;;;7.20;;
75990;SDS011;64673;52.276;10.560;2022-12-13T01:23:01;21.13;;;9.32;;
75990;SDS011;64673;52.276;10.560;2022-12-13T01:25:27;18.50;;;8.60;;
75990;SDS011;64673;52.276;10.560;2022-12-13T01:27:52;20.75;;;8.30;;
75990;SDS011;64673;52.276;10.560;2022-12-13T01:30:18;25.40;;;8.63;;
75990;SDS011;64673;52.276;10.560;2022-12-13T01:32:43;21.63;;;8.57;;
75990;SDS011;64673;52.276;10.560;2022-12-13T01:35:08;19.38;;;7.53;;
75990;SDS011;64673;52.276;10.560;2022-12-13T01:37:34;19.88;;;8.55;;
75990;SDS011;64673;52.276;10.560;2022-12-13T01:40:00;20.73;;;7.38;;
75990;SDS011;64673;52.276;10.560;2022-12-13T01:42:27;18.85;;;8.40;;
75990;SDS011;64673;52.276;10.560;2022-12-13T01:47:58;15.90;;;6.75;;
75990;SDS011;64673;52.276;10.560;2022-12-13T01:50:32;18.70;;;7.47;;
75990;SDS011;64673;52.276;10.560;2022-12-13T01:53:01;21.15;;;7.75;;
75990;SDS011;64673;52.276;10.560;2022-12-13T01:55:31;22.80;;;8.32;;
75990;SDS011;64673;52.276;10.560;2022-12-13T01:58:00;21.42;;;7.53;;
75990;SDS011;64673;52.276;10.560;2022-12-13T02:00:27;24.20;;;7.70;;
75990;SDS011;64673;52.276;10.560;2022-12-13T02:02:53;19.17;;;7.70;;
75990;SDS011;64673;52.276;10.560;2022-12-13T02:05:24;18.83;;;7.20;;
75990;SDS011;64673;52.276;10.560;2022-12-13T02:08:00;21.50;;;8.73;;
75990;SDS011;64673;52.276;10.560;2022-12-13T02:13:02;20.48;;;7.65;;
75990;SDS011;64673;52.276;10.560;2022-12-13T02:15:32;15.85;;;7.18;;
75990;SDS011;64673;52.276;10.560;2022-12-13T02:22:27;17.33;;;7.35;;
75990;SDS011;64673;52.276;10.560;2022-12-13T02:43:48;17.25;;;6.65;;
75990;SDS011;64673;52.276;10.560;2022-12-13T02:46:20;20.58;;;6.85;;
75990;SDS011;64673;52.276;10.560;2022-12-13T02:48:50;14.98;;;6.45;;
75990;SDS011;64673;52.276;10.560;2022-12-13T02:51:18;21.48;;;6.57;;
75990;SDS011;64673;52.276;10.560;2022-12-13T02:53:46;13.40;;;5.50;;
75990;SDS011;64673;52.276;10.560;2022-12-13T02:56:11;19.92;;;6.40;;
75990;SDS011;64673;52.276;10.560;2022-12-13T02:58:39;17.23;;;7.82;;
75990;SDS011;64673;52.276;10.560;2022-12-13T03:08:22;15.23;;;5.90;;
75990;SDS011;64673;52.276;10.560;2022-12-13T03:10:37;16.65;;;6.50;;
75990;SDS011;64673;52.276;10.560;2022-12-13T03:13:29;19.27;;;6.68;;
75990;SDS011;64673;52.276;10.560;2022-12-13T03:16:02;15.73;;;6.63;;
75990;SDS011;64673;52.276;10.560;2022-12-13T03:18:33;16.48;;;6.88;;
75990;SDS011;64673;52.276;10.560;2022-12-13T03:21:00;17.38;;;7.13;;
75990;SDS011;64673;52.276;10.560;2022-12-13T03:23:27;15.73;;;6.25;;
75990;SDS011;64673;52.276;10.560;2022-12-13T03:28:37;16.10;;;6.32;;
75990;SDS011;64673;52.276;10.560;2022-12-13T03:31:03;15.60;;;5.57;;
75990;SDS011;64673;52.276;10.560;2022-12-13T03:33:29;15.95;;;6.55;;
75990;SDS011;64673;52.276;10.560;2022-12-13T03:35:54;14.70;;;6.15;;
75990;SDS011;64673;52.276;10.560;2022-12-13T03:38:20;13.85;;;5.13;;
75990;SDS011;64673;52.276;10.560;2022-12-13T03:40:45;15.68;;;6.45;;
75990;SDS011;64673;52.276;10.560;2022-12-13T03:43:11;18.55;;;6.45;;
75990;SDS011;64673;52.276;10.560;2022-12-13T03:45:36;16.50;;;5.75;;
75990;SDS011;64673;52.276;10.560;2022-12-13T03:48:02;17.75;;;6.72;;
75990;SDS011;64673;52.276;10.560;2022-12-13T03:50:27;13.80;;;5.93;;
75990;SDS011;64673;52.276;10.560;2022-12-13T03:52:59;21.00;;;8.35;;
75990;SDS011;64673;52.276;10.560;2022-12-13T03:55:26;18.85;;;6.20;;
75990;SDS011;64673;52.276;10.560;2022-12-13T03:57:52;15.05;;;6.30;;
75990;SDS011;64673;52.276;10.560;2022-12-13T04:00:17;14.45;;;6.38;;
75990;SDS011;64673;52.276;10.560;2022-12-13T04:02:42;13.10;;;5.78;;
75990;SDS011;64673;52.276;10.560;2022-12-13T04:05:08;12.95;;;5.72;;
75990;SDS011;64673;52.276;10.560;2022-12-13T04:07:33;16.83;;;6.13;;
75990;SDS011;64673;52.276;10.560;2022-12-13T04:09:59;13.93;;;6.05;;
75990;SDS011;64673;52.276;10.560;2022-12-13T04:12:24;17.90;;;6.00;;
75990;SDS011;64673;52.276;10.560;2022-12-13T04:15:08;13.75;;;4.93;;
75990;SDS011;64673;52.276;10.560;2022-12-13T04:17:33;17.73;;;6.75;;
75990;SDS011;64673;52.276;10.560;2022-12-13T04:19:59;20.85;;;7.30;;
75990;SDS011;64673;52.276;10.560;2022-12-13T04:22:24;17.52;;;5.60;;
75990;SDS011;64673;52.276;10.560;2022-12-13T04:24:49;17.92;;;6.25;;
75990;SDS011;64673;52.276;10.560;2022-12-13T04:27:15;12.18;;;5.38;;
75990;SDS011;64673;52.276;10.560;2022-12-13T04:29:40;18.02;;;6.35;;
75990;SDS011;64673;52.276;10.560;2022-12-13T04:32:05;14.55;;;5.63;;
75990;SDS011;64673;52.276;10.560;2022-12-13T04:34:31;13.95;;;5.72;;
75990;SDS011;64673;52.276;10.560;2022-12-13T04:36:56;15.40;;;6.88;;
75990;SDS011;64673;52.276;10.560;2022-12-13T04:39:21;18.40;;;6.57;;
75990;SDS011;64673;52.276;10.560;2022-12-13T04:41:47;13.20;;;6.03;;
75990;SDS011;64673;52.276;10.560;2022-12-13T04:44:12;16.30;;;6.18;;
75990;SDS011;64673;52.276;10.560;2022-12-13T04:46:38;15.90;;;7.07;;
75990;SDS011;64673;52.276;10.560;2022-12-13T04:49:03;16.75;;;6.75;;
75990;SDS011;64673;52.276;10.560;2022-12-13T04:51:29;15.27;;;6.95;;
75990;SDS011;64673;52.276;10.560;2022-12-13T04:53:55;16.00;;;6.63;;
75990;SDS011;64673;52.276;10.560;2022-12-13T04:56:20;13.93;;;5.88;;
75990;SDS011;64673;52.276;10.560;2022-12-13T04:58:45;17.02;;;6.90;;
75990;SDS011;64673;52.276;10.560;2022-12-13T05:01:11;17.35;;;7.50;;
75990;SDS011;64673;52.276;10.560;2022-12-13T05:03:37;16.52;;;7.63;;
75990;SDS011;64673;52.276;10.560;2022-12-13T05:06:03;16.05;;;6.15;;
75990;SDS011;64673;52.276;10.560;2022-12-13T05:08:30;21.45;;;7.43;;
75990;SDS011;64673;52.276;10.560;2022-12-13T05:10:55;14.70;;;5.88;;
75990;SDS011;64673;52.276;10.560;2022-12-13T05:13:23;14.55;;;6.18;;
75990;SDS011;64673;52.276;10.560;2022-12-13T05:15:58;17.63;;;6.80;;
75990;SDS011;64673;52.276;10.560;2022-12-13T05:18:27;16.85;;;5.40;;
75990;SDS011;64673;52.276;10.560;2022-12-13T05:20:53;13.00;;;5.63;;
75990;SDS011;64673;52.276;10.560;2022-12-13T05:23:19;16.90;;;5.30;;
75990;SDS011;64673;52.276;10.560;2022-12-13T05:25:46;13.57;;;5.65;;
75990;SDS011;64673;52.276;10.560;2022-12-13T05:28:12;13.80;;;5.63;;
75990;SDS011;64673;52.276;10.560;2022-12-13T05:30:37;14.10;;;5.65;;
75990;SDS011;64673;52.276;10.560;2022-12-13T05:33:04;16.73;;;5.72;;
75990;SDS011;64673;52.276;10.560;2022-12-13T05:35:29;12.57;;;4.88;;
75990;SDS011;64673;52.276;10.560;2022-12-13T05:37:55;12.98;;;4.95;;
75990;SDS011;64673;52.276;10.560;2022-12-13T05:40:21;13.55;;;5.35;;
75990;SDS011;64673;52.276;10.560;2022-12-13T05:42:47;13.52;;;5.97;;
75990;SDS011;64673;52.276;10.560;2022-12-13T05:45:12;17.17;;;5.90;;
75990;SDS011;64673;52.276;10.560;2022-12-13T05:47:39;13.05;;;5.25;;
75990;SDS011;64673;52.276;10.560;2022-12-13T05:50:05;15.40;;;4.78;;
75990;SDS011;64673;52.276;10.560;2022-12-13T05:52:30;15.25;;;6.38;;
75990;SDS011;64673;52.276;10.560;2022-12-13T05:54:56;15.07;;;6.03;;
75990;SDS011;64673;52.276;10.560;2022-12-13T05:57:21;12.73;;;4.80;;
75990;SDS011;64673;52.276;10.560;2022-12-13T05:59:46;13.85;;;5.82;;
75990;SDS011;64673;52.276;10.560;2022-12-13T06:02:12;12.32;;;4.90;;
75990;SDS011;64673;52.276;10.560;2022-12-13T06:04:38;15.38;;;5.70;;
75990;SDS011;64673;52.276;10.560;2022-12-13T06:07:03;14.93;;;5.22;;
75990;SDS011;64673;52.276;10.560;2022-12-13T06:09:28;13.55;;;5.03;;
75990;SDS011;64673;52.276;10.560;2022-12-13T06:11:54;11.43;;;4.40;;
75990;SDS011;64673;52.276;10.560;2022-12-13T06:14:20;11.07;;;4.38;;
75990;SDS011;64673;52.276;10.560;2022-12-13T06:16:46;15.68;;;5.15;;
75990;SDS011;64673;52.276;10.560;2022-12-13T06:19:12;13.98;;;5.82;;
75990;SDS011;64673;52.276;10.560;2022-12-13T06:21:37;13.35;;;5.50;;
75990;SDS011;64673;52.276;10.560;2022-12-13T06:24:02;18.00;;;6.07;;
75990;SDS011;64673;52.276;10.560;2022-12-13T06:26:29;15.35;;;5.28;;
75990;SDS011;64673;52.276;10.560;2022-12-13T06:28:55;17.40;;;6.10;;
75990;SDS011;64673;52.276;10.560;2022-12-13T06:31:20;13.38;;;5.60;;
75990;SDS011;64673;52.276;10.560;2022-12-13T06:33:46;12.07;;;4.95;;
75990;SDS011;64673;52.276;10.560;2022-12-13T06:36:11;9.68;;;4.93;;
75990;SDS011;64673;52.276;10.560;2022-12-13T06:38:36;16.52;;;6.22;;
75990;SDS011;64673;52.276;10.560;2022-12-13T06:43:40;19.30;;;5.68;;
75990;SDS011;64673;52.276;10.560;2022-12-13T06:46:07;13.57;;;5.25;;
75990;SDS011;64673;52.276;10.560;2022-12-13T06:48:32;12.18;;;5.32;;
75990;SDS011;64673;52.276;10.560;2022-12-13T06:50:58;14.05;;;5.40;;
75990;SDS011;64673;52.276;10.560;2022-12-13T06:53:25;15.93;;;5.65;;
75990;SDS011;64673;52.276;10.560;2022-12-13T06:55:51;14.45;;;7.20;;
75990;SDS011;64673;52.276;10.560;2022-12-13T06:58:16;12.73;;;6.38;;
75990;SDS011;64673;52.276;10.560;2022-12-13T07:00:42;17.50;;;6.18;;
75990;SDS011;64673;52.276;10.560;2022-12-13T07:03:07;12.85;;;6.20;;
75990;SDS011;64673;52.276;10.560;2022-12-13T07:05:36;11.65;;;4.85;;
75990;SDS011;64673;52.276;10.560;2022-12-13T07:08:02;14.60;;;6.25;;
75990;SDS011;64673;52.276;10.560;2022-12-13T07:10:27;16.80;;;5.97;;
75990;SDS011;64673;52.276;10.560;2022-12-13T07:12:53;14.57;;;5.40;;
75990;SDS011;64673;52.276;10.560;2022-12-13T07:15:18;12.90;;;5.38;;
75990;SDS011;64673;52.276;10.560;2022-12-13T07:17:44;15.52;;;5.53;;
75990;SDS011;64673;52.276;10.560;2022-12-13T07:20:14;14.15;;;5.68;;
75990;SDS011;64673;52.276;10.560;2022-12-13T07:22:39;14.18;;;5.80;;
75990;SDS011;64673;52.276;10.560;2022-12-13T07:25:05;18.58;;;6.30;;
75990;SDS011;64673;52.276;10.560;2022-12-13T07:27:31;15.27;;;6.05;;
75990;SDS011;64673;52.276;10.560;2022-12-13T07:29:57;16.77;;;6.78;;
75990;SDS011;64673;52.276;10.560;2022-12-13T07:32:22;18.55;;;6.43;;
75990;SDS011;64673;52.276;10.560;2022-12-13T07:34:48;14.45;;;6.18;;
75990;SDS011;64673;52.276;10.560;2022-12-13T07:37:13;22.20;;;6.88;;
75990;SDS011;64673;52.276;10.560;2022-12-13T07:39:38;19.77;;;7.30;;
75990;SDS011;64673;52.276;10.560;2022-12-13T07:42:04;13.77;;;5.95;;
75990;SDS011;64673;52.276;10.560;2022-12-13T07:44:29;16.02;;;5.68;;
75990;SDS011;64673;52.276;10.560;2022-12-13T07:46:54;16.50;;;6.25;;
75990;SDS011;64673;52.276;10.560;2022-12-13T07:49:20;18.70;;;6.28;;
75990;SDS011;64673;52.276;10.560;2022-12-13T07:51:45;20.13;;;7.03;;
75990;SDS011;64673;52.276;10.560;2022-12-13T07:54:10;21.55;;;7.50;;
75990;SDS011;64673;52.276;10.560;2022-12-13T07:56:36;16.83;;;6.45;;
75990;SDS011;64673;52.276;10.560;2022-12-13T07:59:01;15.80;;;7.07;;
75990;SDS011;64673;52.276;10.560;2022-12-13T08:01:27;15.68;;;6.60;;
75990;SDS011;64673;52.276;10.560;2022-12-13T08:03:53;17.20;;;6.82;;
75990;SDS011;64673;52.276;10.560;2022-12-13T08:06:18;16.48;;;6.10;;
75990;SDS011;64673;52.276;10.560;2022-12-13T08:08:43;11.75;;;5.30;;
75990;SDS011;64673;52.276;10.560;2022-12-13T08:11:10;16.30;;;6.13;;
75990;SDS011;64673;52.276;10.560;2022-12-13T08:13:37;15.23;;;6.45;;
75990;SDS011;64673;52.276;10.560;2022-12-13T08:16:04;13.27;;;5.45;;
75990;SDS011;64673;52.276;10.560;2022-12-13T08:18:31;15.00;;;5.85;;
75990;SDS011;64673;52.276;10.560;2022-12-13T08:20:57;16.55;;;7.07;;
75990;SDS011;64673;52.276;10.560;2022-12-13T08:23:24;16.10;;;6.10;;
75990;SDS011;64673;52.276;10.560;2022-12-13T08:25:53;12.07;;;5.28;;
75990;SDS011;64673;52.276;10.560;2022-12-13T08:28:19;16.35;;;7.25;;
75990;SDS011;64673;52.276;10.560;2022-12-13T08:30:44;17.27;;;6.30;;
75990;SDS011;64673;52.276;10.560;2022-12-13T08:33:10;16.50;;;6.63;;
75990;SDS011;64673;52.276;10.560;2022-12-13T08:35:37;18.92;;;6.18;;
75990;SDS011;64673;52.276;10.560;2022-12-13T08:38:02;14.20;;;6.22;;
75990;SDS011;64673;52.276;10.560;2022-12-13T08:40:27;14.93;;;5.82;;
75990;SDS011;64673;52.276;10.560;2022-12-13T08:42:53;21.50;;;6.93;;
75990;SDS011;64673;52.276;10.560;2022-12-13T08:45:19;18.33;;;6.13;;
75990;SDS011;64673;52.276;10.560;2022-12-13T08:47:44;13.05;;;5.85;;
75990;SDS011;64673;52.276;10.560;2022-12-13T08:50:10;20.45;;;6.20;;
75990;SDS011;64673;52.276;10.560;2022-12-13T08:52:35;14.82;;;5.38;;
75990;SDS011;64673;52.276;10.560;2022-12-13T08:55:00;16.00;;;6.35;;
75990;SDS011;64673;52.276;10.560;2022-12-13T08:57:26;14.32;;;6.53;;
75990;SDS011;64673;52.276;10.560;2022-12-13T08:59:51;17.75;;;7.72;;
75990;SDS011;64673;52.276;10.560;2022-12-13T09:02:18;16.80;;;7.85;;
75990;SDS011;64673;52.276;10.560;2022-12-13T09:04:44;20.88;;;8.45;;
75990;SDS011;64673;52.276;10.560;2022-12-13T09:07:09;17.88;;;6.40;;
75990;SDS011;64673;52.276;10.560;2022-12-13T09:09:35;21.33;;;6.97;;
75990;SDS011;64673;52.276;10.560;2022-12-13T09:12:00;17.33;;;6.97;;
75990;SDS011;64673;52.276;10.560;2022-12-13T09:14:26;16.95;;;7.07;;
75990;SDS011;64673;52.276;10.560;2022-12-13T09:16:51;15.70;;;6.00;;
75990;SDS011;64673;52.276;10.560;2022-12-13T09:19:17;15.48;;;5.43;;
75990;SDS011;64673;52.276;10.560;2022-12-13T09:21:42;13.75;;;5.60;;
75990;SDS011;64673;52.276;10.560;2022-12-13T09:24:08;15.50;;;5.50;;
75990;SDS011;64673;52.276;10.560;2022-12-13T09:26:33;13.95;;;5.43;;
75990;SDS011;64673;52.276;10.560;2022-12-13T09:28:58;15.63;;;5.97;;
75990;SDS011;64673;52.276;10.560;2022-12-13T09:31:24;13.73;;;5.77;;
75990;SDS011;64673;52.276;10.560;2022-12-13T09:33:49;15.20;;;5.53;;
75990;SDS011;64673;52.276;10.560;2022-12-13T09:36:16;14.63;;;6.07;;
75990;SDS011;64673;52.276;10.560;2022-12-13T09:38:44;10.18;;;5.03;;
75990;SDS011;64673;52.276;10.560;2022-12-13T09:43:43;15.60;;;5.32;;
75990;SDS011;64673;52.276;10.560;2022-12-13T09:46:13;12.88;;;6.13;;
75990;SDS011;64673;52.276;10.560;2022-12-13T09:48:46;13.00;;;5.80;;
75990;SDS011;64673;52.276;10.560;2022-12-13T09:51:11;15.85;;;5.32;;
75990;SDS011;64673;52.276;10.560;2022-12-13T09:53:37;17.10;;;5.80;;
75990;SDS011;64673;52.276;10.560;2022-12-13T09:56:03;16.48;;;6.63;;
75990;SDS011;64673;52.276;10.560;2022-12-13T09:58:29;14.13;;;6.53;;
75990;SDS011;64673;52.276;10.560;2022-12-13T10:00:58;12.52;;;6.15;;
75990;SDS011;64673;52.276;10.560;2022-12-13T10:03:24;14.88;;;5.55;;
75990;SDS011;64673;52.276;10.560;2022-12-13T10:06:00;15.55;;;6.10;;
75990;SDS011;64673;52.276;10.560;2022-12-13T10:08:39;18.45;;;7.20;;
75990;SDS011;64673;52.276;10.560;2022-12-13T10:11:12;13.13;;;6.35;;
75990;SDS011;64673;52.276;10.560;2022-12-13T10:13:44;15.77;;;6.70;;
75990;SDS011;64673;52.276;10.560;2022-12-13T10:16:23;14.40;;;6.20;;
75990;SDS011;64673;52.276;10.560;2022-12-13T10:18:52;14.38;;;5.63;;
75990;SDS011;64673;52.276;10.560;2022-12-13T10:21:30;14.13;;;6.03;;
75990;SDS011;64673;52.276;10.560;2022-12-13T10:24:19;14.20;;;6.20;;
75990;SDS011;64673;52.276;10.560;2022-12-13T10:26:46;15.75;;;5.50;;
75990;SDS011;64673;52.276;10.560;2022-12-13T10:29:12;12.05;;;5.65;;
75990;SDS011;64673;52.276;10.560;2022-12-13T10:31:38;13.95;;;5.38;;
75990;SDS011;64673;52.276;10.560;2022-12-13T10:36:39;13.07;;;4.78;;
75990;SDS011;64673;52.276;10.560;2022-12-13T10:39:07;12.60;;;4.28;;
75990;SDS011;64673;52.276;10.560;2022-12-13T10:41:42;15.05;;;5.72;;
75990;SDS011;64673;52.276;10.560;2022-12-13T10:46:39;20.63;;;6.03;;
75990;SDS011;64673;52.276;10.560;2022-12-13T10:49:26;13.10;;;5.25;;
75990;SDS011;64673;52.276;10.560;2022-12-13T10:54:57;10.07;;;4.68;;
75990;SDS011;64673;52.276;10.560;2022-12-13T10:57:26;14.77;;;5.25;;
75990;SDS011;64673;52.276;10.560;2022-12-13T10:59:52;11.57;;;4.63;;
75990;SDS011;64673;52.276;10.560;2022-12-13T11:04:49;13.73;;;6.43;;
75990;SDS011;64673;52.276;10.560;2022-12-13T11:07:34;16.83;;;6.50;;
75990;SDS011;64673;52.276;10.560;2022-12-13T11:10:22;14.82;;;6.35;;
75990;SDS011;64673;52.276;10.560;2022-12-13T11:12:49;17.20;;;6.13;;
75990;SDS011;64673;52.276;10.560;2022-12-13T11:15:16;10.15;;;4.60;;
75990;SDS011;64673;52.276;10.560;2022-12-13T11:17:49;14.25;;;5.20;;
75990;SDS011;64673;52.276;10.560;2022-12-13T11:20:18;11.05;;;4.53;;
75990;SDS011;64673;52.276;10.560;2022-12-13T11:22:47;13.55;;;4.60;;
75990;SDS011;64673;52.276;10.560;2022-12-13T11:25:24;9.70;;;4.53;;
75990;SDS011;64673;52.276;10.560;2022-12-13T11:30:40;15.48;;;5.68;;
75990;SDS011;64673;52.276;10.560;2022-12-13T11:33:31;11.57;;;5.15;;
75990;SDS011;64673;52.276;10.560;2022-12-13T11:44:32;11.82;;;4.88;;
75990;SDS011;64673;52.276;10.560;2022-12-13T11:47:11;12.38;;;5.32;;
75990;SDS011;64673;52.276;10.560;2022-12-13T11:55:04;11.73;;;4.60;;
75990;SDS011;64673;52.276;10.560;2022-12-13T12:00:19;11.32;;;4.75;;
75990;SDS011;64673;52.276;10.560;2022-12-13T12:02:57;13.05;;;5.70;;
75990;SDS011;64673;52.276;10.560;2022-12-13T12:05:31;14.80;;;6.15;;
75990;SDS011;64673;52.276;10.560;2022-12-13T12:10:42;12.10;;;4.95;;
75990;SDS011;64673;52.276;10.560;2022-12-13T12:16:19;14.05;;;5.65;;
75990;SDS011;64673;52.276;10.560;2022-12-13T12:18:52;13.70;;;5.40;;
75990;SDS011;64673;52.276;10.560;2022-12-13T12:27:12;12.95;;;5.50;;
75990;SDS011;64673;52.276;10.560;2022-12-13T12:32:40;12.95;;;5.35;;
75990;SDS011;64673;52.276;10.560;2022-12-13T12:35:23;12.48;;;5.53;;
75990;SDS011;64673;52.276;10.560;2022-12-13T12:43:47;12.63;;;6.05;;
75990;SDS011;64673;52.276;10.560;2022-12-13T12:46:40;12.30;;;4.43;;
75990;SDS011;64673;52.276;10.560;2022-12-13T12:49:26;16.20;;;6.13;;
75990;SDS011;64673;52.276;10.560;2022-12-13T12:51:58;13.75;;;5.43;;
75990;SDS011;64673;52.276;10.560;2022-12-13T13:05:47;14.65;;;5.90;;
75990;SDS011;64673;52.276;10.560;2022-12-13T13:08:22;15.27;;;5.43;;
75990;SDS011;64673;52.276;10.560;2022-12-13T13:10:57;12.80;;;5.30;;
75990;SDS011;64673;52.276;10.560;2022-12-13T13:16:01;15.57;;;5.95;;
75990;SDS011;64673;52.276;10.560;2022-12-13T13:18:48;13.23;;;5.90;;
75990;SDS011;64673;52.276;10.560;2022-12-13T13:26:29;12.70;;;5.03;;
75990;SDS011;64673;52.276;10.560;2022-12-13T13:31:55;13.38;;;5.10;;
75990;SDS011;64673;52.276;10.560;2022-12-13T13:34:28;14.85;;;6.00;;
75990;SDS011;64673;52.276;10.560;2022-12-13T13:36:55;13.93;;;5.57;;
75990;SDS011;64673;52.276;10.560;2022-12-13T13:44:34;16.73;;;6.40;;
75990;SDS011;64673;52.276;10.560;2022-12-13T13:52:20;15.65;;;6.25;;
75990;SDS011;64673;52.276;10.560;2022-12-13T13:57:23;13.38;;;6.13;;
75990;SDS011;64673;52.276;10.560;2022-12-13T14:00:08;14.07;;;5.85;;
75990;SDS011;64673;52.276;10.560;2022-12-13T14:25:19;10.57;;;4.78;;
75990;SDS011;64673;52.276;10.560;2022-12-13T14:28:10;12.40;;;4.97;;
75990;SDS011;64673;52.276;10.560;2022-12-13T14:30:49;12.10;;;5.50;;
75990;SDS011;64673;52.276;10.560;2022-12-13T14:33:21;15.35;;;6.60;;
75990;SDS011;64673;52.276;10.560;2022-12-13T14:35:50;13.93;;;5.43;;
75990;SDS011;64673;52.276;10.560;2022-12-13T14:38:24;13.68;;;5.85;;
75990;SDS011;64673;52.276;10.560;2022-12-13T14:41:03;16.05;;;5.90;;
75990;SDS011;64673;52.276;10.560;2022-12-13T14:43:33;12.70;;;4.82;;
75990;SDS011;64673;52.276;10.560;2022-12-13T14:46:03;16.05;;;5.75;;
75990;SDS011;64673;52.276;10.560;2022-12-13T14:48:35;15.65;;;6.25;;
75990;SDS011;64673;52.276;10.560;2022-12-13T14:51:17;12.60;;;5.03;;
75990;SDS011;64673;52.276;10.560;2022-12-13T14:53:57;13.23;;;5.57;;
75990;SDS011;64673;52.276;10.560;2022-12-13T14:56:23;14.82;;;6.53;;
75990;SDS011;64673;52.276;10.560;2022-12-13T14:59:31;15.07;;;6.53;;
75990;SDS011;64673;52.276;10.560;2022-12-13T15:01:37;17.42;;;7.25;;
75990;SDS011;64673;52.276;10.560;2022-12-13T15:09:26;15.40;;;6.03;;
75990;SDS011;64673;52.276;10.560;2022-12-13T15:11:52;17.92;;;6.05;;
75990;SDS011;64673;52.276;10.560;2022-12-13T15:14:18;16.40;;;7.40;;
75990;SDS011;64673;52.276;10.560;2022-12-13T15:16:50;16.90;;;6.47;;
75990;SDS011;64673;52.276;10.560;2022-12-13T15:19:18;14.18;;;5.65;;
75990;SDS011;64673;52.276;10.560;2022-12-13T15:22:04;16.85;;;6.93;;
75990;SDS011;64673;52.276;10.560;2022-12-13T15:24:38;18.67;;;6.50;;
75990;SDS011;64673;52.276;10.560;2022-12-13T15:27:05;14.98;;;6.70;;
75990;SDS011;64673;52.276;10.560;2022-12-13T15:29:32;16.40;;;6.38;;
75990;SDS011;64673;52.276;10.560;2022-12-13T15:31:59;16.27;;;6.95;;
75990;SDS011;64673;52.276;10.560;2022-12-13T15:36:57;16.63;;;6.90;;
75990;SDS011;64673;52.276;10.560;2022-12-13T15:39:25;18.17;;;7.22;;
75990;SDS011;64673;52.276;10.560;2022-12-13T15:41:53;16.40;;;6.82;;
75990;SDS011;64673;52.276;10.560;2022-12-13T15:44:19;22.02;;;7.85;;
75990;SDS011;64673;52.276;10.560;2022-12-13T15:46:50;16.55;;;7.25;;
75990;SDS011;64673;52.276;10.560;2022-12-13T15:49:23;17.48;;;7.15;;
75990;SDS011;64673;52.276;10.560;2022-12-13T15:54:30;16.63;;;8.30;;
75990;SDS011;64673;52.276;10.560;2022-12-13T15:59:46;14.95;;;7.00;;
75990;SDS011;64673;52.276;10.560;2022-12-13T16:04:44;22.13;;;7.35;;
75990;SDS011;64673;52.276;10.560;2022-12-13T16:10:05;16.67;;;6.70;;
75990;SDS011;64673;52.276;10.560;2022-12-13T16:12:40;16.27;;;6.72;;
75990;SDS011;64673;52.276;10.560;2022-12-13T16:17:36;19.35;;;8.13;;
75990;SDS011;64673;52.276;10.560;2022-12-13T16:20:07;17.40;;;6.55;;
75990;SDS011;64673;52.276;10.560;2022-12-13T16:22:38;16.98;;;7.18;;
75990;SDS011;64673;52.276;10.560;2022-12-13T16:25:03;17.75;;;7.22;;
75990;SDS011;64673;52.276;10.560;2022-12-13T16:27:29;17.00;;;6.50;;
75990;SDS011;64673;52.276;10.560;2022-12-13T16:29:54;19.40;;;7.28;;
75990;SDS011;64673;52.276;10.560;2022-12-13T16:32:20;20.40;;;7.57;;
75990;SDS011;64673;52.276;10.560;2022-12-13T16:34:45;18.00;;;6.93;;
75990;SDS011;64673;52.276;10.560;2022-12-13T16:37:10;22.45;;;7.93;;
75990;SDS011;64673;52.276;10.560;2022-12-13T16:42:04;20.10;;;8.10;;
75990;SDS011;64673;52.276;10.560;2022-12-13T16:46:55;23.33;;;9.47;;
75990;SDS011;64673;52.276;10.560;2022-12-13T16:51:48;21.15;;;8.80;;
75990;SDS011;64673;52.276;10.560;2022-12-13T16:54:14;22.35;;;9.75;;
75990;SDS011;64673;52.276;10.560;2022-12-13T16:56:40;22.73;;;8.88;;
75990;SDS011;64673;52.276;10.560;2022-12-13T16:59:05;20.35;;;9.40;;
75990;SDS011;64673;52.276;10.560;2022-12-13T17:01:32;18.88;;;8.50;;
75990;SDS011;64673;52.276;10.560;2022-12-13T17:03:57;19.33;;;8.02;;
75990;SDS011;64673;52.276;10.560;2022-12-13T17:06:23;22.02;;;8.82;;
75990;SDS011;64673;52.276;10.560;2022-12-13T17:08:49;18.95;;;8.02;;
75990;SDS011;64673;52.276;10.560;2022-12-13T17:11:14;21.38;;;9.35;;
75990;SDS011;64673;52.276;10.560;2022-12-13T17:13:39;19.42;;;7.53;;
75990;SDS011;64673;52.276;10.560;2022-12-13T17:16:05;19.90;;;8.20;;
75990;SDS011;64673;52.276;10.560;2022-12-13T17:18:31;19.25;;;8.13;;
75990;SDS011;64673;52.276;10.560;2022-12-13T17:20:57;20.42;;;8.23;;
75990;SDS011;64673;52.276;10.560;2022-12-13T17:23:23;19.05;;;8.40;;
75990;SDS011;64673;52.276;10.560;2022-12-13T17:25:48;19.42;;;7.80;;
75990;SDS011;64673;52.276;10.560;2022-12-13T17:28:14;19.50;;;8.63;;